Time;durP1;ratioP1;P1;durP2;ratioP2;P2;SDS_P1;SDS_P2;PMS_P1;PMS_P2;Temp;Humidity;BMP_temperature;BMP_pressure;BME280_temperature;BME280_humidity;BME280_pressure;Samples;Min_cycle;Max_cycle;Signal;HPM_P1;HPM_P2
2021/01/25 00:04:33;;;;;;;3.40;1.65;;;1.80;99.90;;;;;;10242200;28;20066;-53
2021/01/25 00:09:55;;;;;;;3.90;1.77;;;1.80;99.90;;;;;;10239666;28;20062;-53
2021/01/25 00:15:16;;;;;;;5.57;2.55;;;1.80;99.90;;;;;;10242085;28;20053;-53
2021/01/25 00:20:37;;;;;;;6.32;3.15;;;1.80;99.90;;;;;;10236341;28;20055;-54
2021/01/25 00:25:58;;;;;;;6.22;1.95;;;1.80;99.90;;;;;;10227010;28;20094;-53
2021/01/25 00:31:19;;;;;;;5.07;2.58;;;1.90;99.90;;;;;;10237400;28;20050;-53
2021/01/25 00:36:40;;;;;;;5.50;2.03;;;1.80;99.90;;;;;;10240655;28;20118;-53
2021/01/25 00:42:02;;;;;;;7.55;2.33;;;1.80;99.90;;;;;;10235849;28;20137;-53
2021/01/25 00:47:22;;;;;;;4.63;2.58;;;1.80;99.90;;;;;;10233120;28;20047;-53
2021/01/25 00:52:43;;;;;;;5.05;1.70;;;1.70;99.90;;;;;;10238893;28;20038;-53
2021/01/25 00:58:04;;;;;;;6.25;2.03;;;1.70;99.90;;;;;;10232510;28;20126;-54
2021/01/25 01:03:25;;;;;;;3.13;1.38;;;1.80;99.90;;;;;;10241588;28;20035;-53
2021/01/25 01:08:46;;;;;;;4.03;2.28;;;1.80;99.90;;;;;;10237442;28;20398;-54
2021/01/25 01:14:07;;;;;;;6.30;1.98;;;1.80;99.90;;;;;;10236256;28;22048;-53
2021/01/25 01:19:28;;;;;;;4.93;1.65;;;1.90;99.90;;;;;;10227904;28;20130;-53
2021/01/25 01:24:49;;;;;;;5.93;1.77;;;1.90;99.90;;;;;;10220061;28;20047;-53
2021/01/25 01:30:11;;;;;;;3.85;1.48;;;1.90;99.90;;;;;;10237610;28;20423;-53
2021/01/25 01:35:31;;;;;;;8.98;2.50;;;1.90;99.90;;;;;;10238826;28;20043;-54
2021/01/25 01:40:56;;;;;;;3.20;1.70;;;1.90;99.90;;;;;;10237163;28;20046;-53
2021/01/25 01:46:18;;;;;;;8.55;2.67;;;1.90;99.90;;;;;;10230148;28;20134;-53
2021/01/25 01:51:39;;;;;;;3.67;1.90;;;2.00;99.90;;;;;;10242092;28;20190;-53
2021/01/25 01:57:01;;;;;;;4.00;2.22;;;1.90;99.90;;;;;;10237867;28;20478;-54
2021/01/25 02:02:22;;;;;;;7.55;2.63;;;2.00;99.90;;;;;;10241015;28;20403;-54
2021/01/25 02:07:46;;;;;;;3.65;1.70;;;1.90;99.90;;;;;;10236617;28;20042;-54
2021/01/25 02:13:08;;;;;;;5.50;1.98;;;1.90;99.90;;;;;;10235287;28;20634;-54
2021/01/25 02:18:34;;;;;;;6.15;1.65;;;1.90;99.90;;;;;;10232776;28;20053;-54
2021/01/25 02:24:19;;;;;;;6.78;2.08;;;2.00;99.90;;;;;;10234851;28;20074;-54
2021/01/25 02:29:43;;;;;;;3.65;1.88;;;1.90;99.90;;;;;;10236225;28;20047;-54
2021/01/25 02:35:08;;;;;;;4.68;1.73;;;1.80;99.90;;;;;;10223492;28;20030;-53
2021/01/25 02:40:31;;;;;;;6.10;2.90;;;1.80;99.90;;;;;;10236759;28;20442;-54
2021/01/25 02:45:52;;;;;;;4.18;1.58;;;1.70;99.90;;;;;;10237823;28;20140;-54
2021/01/25 02:51:13;;;;;;;5.40;1.65;;;1.70;99.90;;;;;;10235562;28;20059;-54
2021/01/25 02:56:35;;;;;;;5.57;1.60;;;1.60;99.90;;;;;;10234613;28;20050;-54
2021/01/25 03:01:56;;;;;;;3.33;1.65;;;1.70;99.90;;;;;;10235840;28;20569;-54
2021/01/25 03:07:17;;;;;;;4.32;2.00;;;1.70;99.90;;;;;;10247931;28;20086;-54
2021/01/25 03:12:38;;;;;;;11.10;2.50;;;1.70;99.90;;;;;;10244709;28;20031;-54
2021/01/25 03:17:59;;;;;;;8.38;2.25;;;1.60;99.90;;;;;;10242917;28;20085;-54
2021/01/25 03:23:21;;;;;;;7.30;2.72;;;1.70;99.90;;;;;;10238028;28;20422;-54
2021/01/25 03:28:42;;;;;;;4.53;2.30;;;1.70;99.90;;;;;;10232184;28;20043;-54
2021/01/25 03:34:04;;;;;;;6.55;2.53;;;1.70;99.90;;;;;;10218423;28;20777;-54
2021/01/25 03:39:25;;;;;;;4.22;1.75;;;1.70;99.90;;;;;;10244868;28;20124;-54
2021/01/25 03:44:46;;;;;;;3.53;2.40;;;1.60;99.90;;;;;;10247197;28;20471;-54
2021/01/25 03:50:07;;;;;;;7.18;2.40;;;1.70;99.90;;;;;;10238389;28;20053;-54
2021/01/25 03:55:28;;;;;;;6.50;2.78;;;1.70;99.90;;;;;;10241576;28;20062;-54
2021/01/25 04:00:49;;;;;;;6.05;2.20;;;1.60;99.90;;;;;;10238425;28;20242;-54
2021/01/25 04:06:10;;;;;;;7.47;2.17;;;1.60;99.90;;;;;;10237985;28;20090;-54
2021/01/25 04:11:32;;;;;;;6.35;3.20;;;1.60;99.90;;;;;;10236461;28;20054;-54
2021/01/25 04:16:53;;;;;;;5.40;2.33;;;1.60;99.90;;;;;;10242844;28;20031;-53
2021/01/25 04:22:14;;;;;;;3.42;1.77;;;1.50;99.90;;;;;;10243006;28;20035;-54
2021/01/25 04:27:35;;;;;;;5.97;3.13;;;1.40;99.90;;;;;;10238722;28;20082;-54
2021/01/25 04:32:56;;;;;;;4.45;1.10;;;1.40;99.90;;;;;;10237843;28;20118;-54
2021/01/25 04:38:18;;;;;;;6.10;2.63;;;1.30;99.90;;;;;;10239075;28;20093;-54
2021/01/25 04:43:39;;;;;;;10.23;2.08;;;1.20;99.90;;;;;;10241272;28;20042;-54
2021/01/25 04:49:00;;;;;;;5.40;2.03;;;1.10;99.90;;;;;;10237170;28;20141;-54
2021/01/25 04:54:21;;;;;;;6.43;3.17;;;1.10;99.90;;;;;;10237905;28;20067;-54
2021/01/25 04:59:44;;;;;;;4.70;1.60;;;1.00;99.90;;;;;;10244464;28;20049;-54
2021/01/25 05:05:07;;;;;;;4.05;2.65;;;0.90;99.90;;;;;;10241991;28;20051;-54
2021/01/25 05:10:31;;;;;;;5.20;1.38;;;0.90;99.90;;;;;;10241611;28;20085;-54
2021/01/25 05:15:53;;;;;;;3.75;1.50;;;0.80;99.90;;;;;;10237538;28;20039;-54
2021/01/25 05:21:14;;;;;;;5.60;2.20;;;0.70;99.90;;;;;;10236836;28;20042;-54
2021/01/25 05:26:35;;;;;;;5.15;2.05;;;0.70;99.90;;;;;;10236771;28;20554;-54
2021/01/25 05:31:57;;;;;;;6.00;2.60;;;0.70;99.90;;;;;;10235247;28;20132;-54
2021/01/25 05:37:18;;;;;;;5.10;3.00;;;0.70;99.90;;;;;;10236919;28;20043;-54
2021/01/25 05:42:41;;;;;;;8.90;2.20;;;0.70;99.90;;;;;;10246133;28;20042;-54
2021/01/25 05:48:02;;;;;;;7.70;2.63;;;0.70;99.90;;;;;;10237231;28;20041;-54
2021/01/25 05:53:23;;;;;;;4.15;1.65;;;0.60;99.90;;;;;;10239099;28;20047;-54
2021/01/25 05:58:44;;;;;;;7.68;2.33;;;0.60;99.90;;;;;;10240419;28;20066;-54
2021/01/25 06:04:07;;;;;;;11.40;2.45;;;0.50;99.90;;;;;;10237971;28;20105;-53
2021/01/25 06:09:45;;;;;;;8.13;2.03;;;0.30;99.90;;;;;;10238906;28;20351;-53
2021/01/25 06:15:14;;;;;;;6.10;2.33;;;0.30;99.90;;;;;;10236005;28;20089;-53
2021/01/25 06:20:37;;;;;;;9.55;2.75;;;0.30;99.90;;;;;;10229523;28;20394;-54
2021/01/25 06:25:58;;;;;;;7.55;2.42;;;0.30;99.90;;;;;;10238864;28;20049;-53
2021/01/25 06:31:21;;;;;;;6.63;2.58;;;0.20;99.90;;;;;;10241430;28;20495;-53
2021/01/25 06:36:42;;;;;;;4.18;2.03;;;0.10;99.90;;;;;;10238697;28;20462;-53
2021/01/25 06:42:05;;;;;;;5.30;2.20;;;0.00;99.90;;;;;;10243879;28;20074;-54
2021/01/25 06:47:28;;;;;;;9.40;2.63;;;0.00;99.90;;;;;;10236861;28;20094;-54
2021/01/25 06:52:49;;;;;;;8.93;3.63;;;0.00;99.90;;;;;;10246614;28;20398;-54
2021/01/25 06:58:11;;;;;;;6.55;2.08;;;0.00;99.90;;;;;;10240292;28;20051;-53
2021/01/25 07:03:50;;;;;;;9.90;3.97;;;-0.10;99.90;;;;;;10243876;28;20349;-53
2021/01/25 07:09:11;;;;;;;13.88;5.00;;;0.00;99.90;;;;;;10242457;28;20142;-53
2021/01/25 07:14:33;;;;;;;11.98;5.07;;;-0.10;99.90;;;;;;10245043;28;20771;-54
2021/01/25 07:19:54;;;;;;;7.65;4.07;;;-0.10;99.90;;;;;;10234537;28;20071;-54
2021/01/25 07:25:15;;;;;;;11.90;3.55;;;-0.20;99.90;;;;;;10242862;28;20063;-54
2021/01/25 07:30:36;;;;;;;5.28;2.85;;;-0.20;99.90;;;;;;10243493;28;20391;-54
2021/01/25 07:36:00;;;;;;;8.45;3.03;;;-0.20;99.90;;;;;;10242850;28;20050;-53
2021/01/25 07:41:21;;;;;;;8.27;2.88;;;-0.10;99.90;;;;;;10241962;28;20487;-54
2021/01/25 07:46:45;;;;;;;7.65;2.70;;;-0.10;99.90;;;;;;10238516;28;20194;-54
2021/01/25 07:52:16;;;;;;;14.10;3.58;;;0.00;99.90;;;;;;10239711;28;20043;-54
2021/01/25 07:57:37;;;;;;;6.55;2.83;;;-0.10;99.90;;;;;;10240874;28;20031;-54
2021/01/25 08:03:28;;;;;;;13.57;2.92;;;-0.10;99.90;;;;;;10245851;28;20031;-54
2021/01/25 08:08:50;;;;;;;5.72;2.40;;;-0.10;99.90;;;;;;10240658;28;20047;-54
2021/01/25 08:14:25;;;;;;;4.75;1.92;;;-0.20;99.90;;;;;;10242232;28;20039;-53
2021/01/25 08:20:02;;;;;;;5.95;2.15;;;-0.20;99.90;;;;;;10223959;28;20357;-53
2021/01/25 08:25:27;;;;;;;5.85;2.95;;;-0.10;99.90;;;;;;10231093;28;20047;-54
2021/01/25 08:30:50;;;;;;;6.53;2.58;;;-0.10;99.90;;;;;;10239024;28;20050;-54
2021/01/25 08:36:13;;;;;;;14.23;5.97;;;0.00;99.90;;;;;;10232962;28;20043;-54
2021/01/25 08:41:34;;;;;;;9.35;3.65;;;0.10;99.90;;;;;;10235923;28;20759;-54
2021/01/25 08:47:07;;;;;;;8.07;2.30;;;0.20;99.90;;;;;;10238309;28;20034;-54
2021/01/25 08:52:42;;;;;;;9.55;2.35;;;0.30;99.90;;;;;;10242261;28;20039;-54
2021/01/25 08:58:18;;;;;;;9.35;3.92;;;0.40;99.90;;;;;;10236753;28;20042;-54
2021/01/25 09:03:39;;;;;;;15.20;4.05;;;0.60;99.90;;;;;;10237241;28;20054;-54
2021/01/25 09:09:01;;;;;;;10.48;4.40;;;0.90;99.90;;;;;;10241214;28;20715;-54
2021/01/25 09:14:22;;;;;;;8.18;2.75;;;1.10;99.90;;;;;;10239662;28;21393;-54
2021/01/25 09:19:43;;;;;;;7.65;4.07;;;1.40;99.90;;;;;;10235788;28;20038;-54
2021/01/25 09:25:12;;;;;;;15.55;3.88;;;1.80;99.90;;;;;;10356193;28;20388;-54
2021/01/25 09:30:33;;;;;;;19.63;4.22;;;2.20;99.90;;;;;;10347227;28;20046;-54
2021/01/25 09:35:54;;;;;;;13.68;4.68;;;2.50;99.90;;;;;;10388881;27;20075;-54
2021/01/25 09:41:15;;;;;;;4.70;2.30;;;2.80;99.90;;;;;;10417340;27;20052;-54
2021/01/25 09:46:36;;;;;;;7.03;2.92;;;3.30;99.90;;;;;;10425556;27;20071;-54
2021/01/25 09:51:58;;;;;;;7.50;3.28;;;3.60;99.90;;;;;;10426206;27;20042;-54
2021/01/25 09:57:19;;;;;;;8.20;3.10;;;3.60;99.90;;;;;;10427032;27;20180;-54
2021/01/25 10:02:40;;;;;;;6.80;2.67;;;3.70;99.90;;;;;;10429853;27;20041;-54
2021/01/25 10:08:01;;;;;;;7.55;2.35;;;4.00;99.90;;;;;;10426312;27;20062;-54
2021/01/25 10:13:23;;;;;;;6.40;2.80;;;4.10;99.90;;;;;;10423321;27;20212;-54
2021/01/25 10:18:44;;;;;;;5.07;2.22;;;4.00;99.90;;;;;;10422923;28;20044;-54
2021/01/25 10:24:06;;;;;;;5.45;2.60;;;3.90;99.90;;;;;;10428393;27;20067;-54
2021/01/25 10:29:27;;;;;;;7.18;2.70;;;4.00;99.90;;;;;;10427691;27;20048;-54
2021/01/25 10:34:48;;;;;;;7.68;2.65;;;4.20;99.90;;;;;;10404617;27;20507;-54
2021/01/25 10:40:10;;;;;;;8.77;3.97;;;4.50;99.90;;;;;;10395826;27;20045;-54
2021/01/25 10:45:31;;;;;;;10.70;2.60;;;4.60;99.90;;;;;;10399613;27;20186;-54
2021/01/25 10:50:52;;;;;;;7.65;3.30;;;5.00;99.90;;;;;;10402842;27;20091;-54
2021/01/25 10:56:13;;;;;;;6.07;2.83;;;5.50;99.90;;;;;;10396523;27;20144;-54
2021/01/25 11:01:34;;;;;;;6.95;2.30;;;5.90;99.90;;;;;;10397422;27;20657;-54
2021/01/25 11:06:55;;;;;;;7.93;3.05;;;6.60;99.90;;;;;;10395209;27;20057;-54
2021/01/25 11:12:17;;;;;;;5.30;2.92;;;7.40;99.90;;;;;;10395816;27;20037;-54
2021/01/25 11:17:38;;;;;;;3.70;1.80;;;7.60;99.90;;;;;;10394536;27;21632;-54
2021/01/25 11:22:59;;;;;;;4.63;1.98;;;7.90;99.90;;;;;;10400144;27;20534;-54
2021/01/25 11:28:20;;;;;;;4.65;1.83;;;8.60;99.90;;;;;;10394032;27;20045;-54
2021/01/25 11:33:41;;;;;;;3.92;1.38;;;9.00;99.90;;;;;;10398625;28;20048;-54
2021/01/25 11:39:03;;;;;;;7.13;1.40;;;9.50;99.90;;;;;;10395836;27;20049;-54
2021/01/25 11:44:24;;;;;;;3.88;2.17;;;9.60;99.90;;;;;;10390922;27;20034;-54
2021/01/25 11:49:45;;;;;;;5.45;1.70;;;10.50;99.90;;;;;;10394872;27;20629;-54
2021/01/25 11:55:07;;;;;;;5.25;1.90;;;11.50;99.90;;;;;;10386858;27;20045;-54
2021/01/25 12:00:28;;;;;;;5.78;1.38;;;12.10;99.90;;;;;;10390317;27;20040;-54
2021/01/25 12:05:49;;;;;;;4.75;1.98;;;13.00;99.30;;;;;;10393585;27;20165;-54
2021/01/25 12:11:11;;;;;;;4.60;1.52;;;12.00;99.90;;;;;;10392824;27;20050;-54
2021/01/25 12:16:31;;;;;;;3.40;1.05;;;11.90;99.90;;;;;;10391605;28;20408;-53
2021/01/25 12:21:52;;;;;;;2.78;1.45;;;12.60;99.90;;;;;;10396540;27;20053;-54
2021/01/25 12:27:14;;;;;;;3.75;1.55;;;13.40;98.90;;;;;;10392219;28;20047;-54
2021/01/25 12:32:34;;;;;;;3.15;0.93;;;13.80;95.20;;;;;;10388855;27;20045;-59
2021/01/25 12:37:56;;;;;;;2.30;1.50;;;12.90;97.50;;;;;;10399925;27;20053;-53
2021/01/25 12:43:18;;;;;;;4.47;2.03;;;11.90;97.40;;;;;;10396163;27;20049;-53
2021/01/25 12:48:39;;;;;;;3.75;1.88;;;11.30;99.90;;;;;;10392315;28;20034;-54
2021/01/25 12:54:00;;;;;;;3.92;1.67;;;11.20;99.90;;;;;;10390704;28;20068;-53
2021/01/25 12:59:21;;;;;;;3.65;1.08;;;9.50;99.90;;;;;;10392214;27;20060;-53
2021/01/25 13:04:42;;;;;;;2.13;0.98;;;10.30;99.90;;;;;;10396665;27;20041;-54
2021/01/25 13:10:04;;;;;;;6.57;1.42;;;12.30;99.90;;;;;;10389785;27;20128;-54
2021/01/25 13:15:25;;;;;;;3.80;1.52;;;10.20;99.90;;;;;;10396936;27;20044;-54
2021/01/25 13:20:46;;;;;;;3.28;1.80;;;8.70;99.90;;;;;;10394780;27;20053;-53
2021/01/25 13:26:07;;;;;;;4.07;1.38;;;8.00;99.90;;;;;;10391573;27;20090;-53
2021/01/25 13:31:28;;;;;;;3.97;2.25;;;7.30;99.90;;;;;;10390907;27;20314;-53
2021/01/25 13:36:49;;;;;;;1.00;0.30;;;6.90;99.90;;;;;;10391566;27;20427;-53
2021/01/25 13:42:11;;;;;;;0.88;0.40;;;6.80;99.90;;;;;;10389601;28;20114;-53
2021/01/25 13:47:33;;;;;;;1.17;0.43;;;6.90;99.90;;;;;;10390508;27;20033;-53
2021/01/25 13:52:54;;;;;;;0.30;0.10;;;7.10;99.90;;;;;;10387443;28;20270;-53
2021/01/25 13:58:15;;;;;;;5.13;0.20;;;6.90;99.90;;;;;;10388977;28;20488;-53
2021/01/25 14:03:36;;;;;;;0.20;0.10;;;6.50;99.90;;;;;;10395073;27;20068;-53
2021/01/25 14:08:57;;;;;;;4.85;0.75;;;6.30;99.90;;;;;;10395729;27;20033;-53
2021/01/25 14:14:18;;;;;;;0.93;0.30;;;6.50;99.90;;;;;;10393614;27;20042;-53
2021/01/25 14:19:40;;;;;;;0.40;0.10;;;6.80;99.90;;;;;;10399770;27;20707;-53
2021/01/25 14:25:01;;;;;;;0.25;0.10;;;6.80;99.90;;;;;;10394804;27;20052;-53
2021/01/25 14:30:24;;;;;;;0.63;0.20;;;6.80;99.90;;;;;;10395167;27;20075;-53
2021/01/25 14:35:47;;;;;;;1.45;0.30;;;6.50;99.90;;;;;;10397322;28;20049;-53
2021/01/25 14:41:09;;;;;;;0.70;0.20;;;6.30;99.90;;;;;;10395610;27;20144;-53
2021/01/25 14:46:30;;;;;;;0.82;0.28;;;6.10;99.90;;;;;;10392919;27;20068;-53
2021/01/25 14:51:51;;;;;;;0.68;0.13;;;5.90;99.90;;;;;;10397838;27;20052;-53
2021/01/25 14:57:12;;;;;;;0.90;0.20;;;6.00;99.90;;;;;;10398755;28;20044;-53
2021/01/25 15:02:33;;;;;;;2.72;0.20;;;5.80;99.90;;;;;;10403417;27;20030;-53
2021/01/25 15:07:54;;;;;;;0.20;0.00;;;5.70;99.90;;;;;;10403652;27;20049;-53
2021/01/25 15:13:15;;;;;;;0.68;0.20;;;5.60;99.90;;;;;;10398786;27;20145;-53
2021/01/25 15:18:36;;;;;;;0.38;0.13;;;5.70;99.90;;;;;;10396054;27;20040;-53
2021/01/25 15:23:57;;;;;;;2.55;0.43;;;5.50;99.90;;;;;;10397260;27;20053;-53
2021/01/25 15:29:18;;;;;;;0.30;0.17;;;5.50;99.90;;;;;;10397881;27;20109;-53
2021/01/25 15:34:39;;;;;;;0.00;0.00;;;5.40;99.90;;;;;;10400703;27;20047;-53
2021/01/25 15:40:00;;;;;;;0.95;0.10;;;5.40;99.90;;;;;;10397168;27;20361;-53
2021/01/25 15:45:23;;;;;;;0.63;0.45;;;5.30;99.90;;;;;;10393824;27;20109;-53
2021/01/25 15:50:44;;;;;;;0.38;0.10;;;5.20;99.90;;;;;;10395780;27;20042;-53
2021/01/25 15:56:05;;;;;;;0.30;0.10;;;5.00;99.90;;;;;;10395998;27;21801;-53
2021/01/25 16:01:26;;;;;;;1.50;0.68;;;5.00;99.90;;;;;;10383245;27;20268;-53
2021/01/25 16:06:47;;;;;;;0.00;0.00;;;4.90;99.90;;;;;;10389787;28;20233;-53
2021/01/25 16:12:09;;;;;;;1.17;0.35;;;4.80;99.90;;;;;;10392022;27;20439;-53
2021/01/25 16:17:33;;;;;;;0.10;0.00;;;4.80;99.90;;;;;;10392085;28;20045;-53
2021/01/25 16:22:54;;;;;;;2.50;0.13;;;4.70;99.90;;;;;;10394031;27;20052;-53
2021/01/25 16:28:15;;;;;;;1.15;0.30;;;4.80;99.90;;;;;;10396011;27;20044;-53
2021/01/25 16:33:36;;;;;;;0.52;0.20;;;4.80;99.90;;;;;;10388881;27;20047;-53
2021/01/25 16:38:58;;;;;;;0.40;0.10;;;4.60;99.90;;;;;;10388608;28;20042;-53
2021/01/25 16:44:19;;;;;;;0.98;0.32;;;4.70;99.90;;;;;;10391457;28;20341;-53
2021/01/25 16:49:40;;;;;;;0.32;0.30;;;4.70;99.90;;;;;;10398833;27;20514;-53
2021/01/25 16:55:01;;;;;;;1.70;0.88;;;4.80;99.90;;;;;;10396364;27;20048;-53
2021/01/25 17:00:23;;;;;;;1.30;0.40;;;4.80;99.90;;;;;;10397577;27;20045;-53
2021/01/25 17:05:44;;;;;;;2.78;0.50;;;4.70;99.90;;;;;;10382648;27;20389;-53
2021/01/25 17:11:05;;;;;;;1.50;0.50;;;4.70;99.90;;;;;;10395333;27;20395;-53
2021/01/25 17:16:26;;;;;;;2.13;0.77;;;4.70;99.90;;;;;;10391959;27;20057;-53
2021/01/25 17:21:47;;;;;;;0.88;0.40;;;4.70;99.90;;;;;;10388838;27;20412;-53
2021/01/25 17:27:07;;;;;;;7.30;0.40;;;4.70;99.90;;;;;;10385171;27;20041;-53
2021/01/25 17:32:29;;;;;;;1.75;0.68;;;4.50;99.90;;;;;;10395470;27;20038;-53
2021/01/25 17:37:50;;;;;;;1.05;0.75;;;4.60;99.90;;;;;;10372347;27;20079;-53
2021/01/25 17:43:11;;;;;;;5.07;0.57;;;4.40;99.90;;;;;;10389163;27;20045;-53
2021/01/25 17:48:32;;;;;;;0.75;0.47;;;4.40;99.90;;;;;;10397757;27;20412;-53
2021/01/25 17:53:53;;;;;;;9.43;1.25;;;4.40;99.90;;;;;;10398651;27;20439;-53
2021/01/25 17:59:14;;;;;;;1.33;0.77;;;4.50;99.90;;;;;;10401056;27;20038;-53
2021/01/25 18:04:35;;;;;;;5.63;1.02;;;4.50;99.90;;;;;;10400221;27;20480;-54
2021/01/25 18:09:56;;;;;;;1.45;0.90;;;4.40;99.90;;;;;;10399995;27;20140;-53
2021/01/25 18:15:17;;;;;;;3.38;0.70;;;4.40;99.90;;;;;;10398788;27;20041;-53
2021/01/25 18:20:38;;;;;;;2.38;0.93;;;4.40;99.90;;;;;;10400580;27;20128;-53
2021/01/25 18:26:00;;;;;;;2.40;0.95;;;4.50;99.90;;;;;;10397681;27;20371;-53
2021/01/25 18:31:21;;;;;;;3.05;1.08;;;4.50;99.90;;;;;;10399956;27;20048;-53
2021/01/25 18:36:43;;;;;;;3.38;1.42;;;4.70;99.90;;;;;;10399346;27;20044;-53
2021/01/25 18:42:05;;;;;;;3.67;1.13;;;4.70;99.90;;;;;;10391667;27;20041;-54
2021/01/25 18:47:28;;;;;;;3.40;0.75;;;4.70;99.90;;;;;;10397727;27;20114;-54
2021/01/25 18:52:51;;;;;;;4.40;1.50;;;4.70;99.90;;;;;;10396501;27;20169;-54
2021/01/25 18:58:13;;;;;;;3.25;1.30;;;4.70;99.90;;;;;;10395442;27;20393;-54
2021/01/25 19:03:34;;;;;;;5.57;1.40;;;4.50;99.90;;;;;;10399941;27;20056;-54
2021/01/25 19:08:55;;;;;;;4.07;0.80;;;4.40;99.90;;;;;;10393718;27;20520;-54
2021/01/25 19:14:18;;;;;;;1.08;0.50;;;4.30;99.90;;;;;;10396723;27;20128;-54
2021/01/25 19:19:39;;;;;;;1.60;0.60;;;4.20;99.90;;;;;;10395606;27;20367;-54
2021/01/25 19:25:00;;;;;;;1.88;0.80;;;4.10;99.90;;;;;;10400255;27;20053;-54
2021/01/25 19:30:23;;;;;;;2.75;0.80;;;4.00;99.90;;;;;;10398077;27;20453;-54
2021/01/25 19:35:44;;;;;;;2.20;0.82;;;3.90;99.90;;;;;;10387802;27;20050;-54
2021/01/25 19:41:05;;;;;;;1.63;1.00;;;3.80;99.90;;;;;;10398827;27;20053;-54
2021/01/25 19:46:27;;;;;;;1.85;0.90;;;3.90;99.90;;;;;;10398637;27;20049;-54
2021/01/25 19:51:48;;;;;;;2.08;0.95;;;3.90;99.90;;;;;;10398803;27;20443;-54
2021/01/25 19:57:09;;;;;;;2.35;1.05;;;4.10;99.90;;;;;;10401441;27;20037;-54
2021/01/25 20:02:30;;;;;;;4.20;1.52;;;4.20;99.90;;;;;;10396183;27;20034;-54
2021/01/25 20:07:51;;;;;;;5.25;2.25;;;4.30;99.90;;;;;;10388642;27;20120;-54
2021/01/25 20:13:12;;;;;;;3.42;1.27;;;4.40;99.90;;;;;;10391441;27;20487;-54
2021/01/25 20:18:34;;;;;;;2.15;0.70;;;4.50;99.90;;;;;;10391773;27;20049;-54
2021/01/25 20:23:56;;;;;;;4.03;1.67;;;4.70;99.90;;;;;;10399670;27;20549;-54
2021/01/25 20:29:17;;;;;;;3.65;1.30;;;4.70;99.90;;;;;;10392633;27;20071;-54
2021/01/25 20:34:38;;;;;;;2.80;1.08;;;4.80;99.90;;;;;;10383557;27;20064;-54
2021/01/25 20:39:59;;;;;;;2.80;0.98;;;4.80;99.90;;;;;;10397536;27;20561;-54
2021/01/25 20:45:23;;;;;;;4.35;0.80;;;4.80;99.90;;;;;;10395204;27;20074;-54
2021/01/25 20:50:44;;;;;;;2.88;0.90;;;4.90;99.90;;;;;;10391457;27;20265;-54
2021/01/25 20:56:05;;;;;;;2.15;0.82;;;4.90;99.90;;;;;;10386551;27;20037;-54
2021/01/25 21:01:26;;;;;;;1.77;0.60;;;5.00;99.90;;;;;;10399355;27;20109;-54
2021/01/25 21:06:47;;;;;;;7.07;1.38;;;5.00;99.90;;;;;;10392895;27;20057;-54
2021/01/25 21:12:08;;;;;;;3.72;1.52;;;5.10;99.90;;;;;;10397321;27;20045;-54
2021/01/25 21:17:30;;;;;;;7.63;0.70;;;5.10;99.90;;;;;;10394757;27;20067;-54
2021/01/25 21:22:51;;;;;;;2.90;0.63;;;4.90;99.90;;;;;;10398010;27;20499;-54
2021/01/25 21:28:12;;;;;;;1.58;0.38;;;4.70;99.90;;;;;;10391546;27;20041;-54
2021/01/25 21:33:33;;;;;;;0.73;0.40;;;4.30;99.90;;;;;;10391090;27;20126;-54
2021/01/25 21:38:54;;;;;;;0.38;0.20;;;4.00;99.90;;;;;;10391327;27;20057;-54
2021/01/25 21:44:15;;;;;;;0.95;0.28;;;3.90;99.90;;;;;;10389957;27;20100;-54
2021/01/25 21:49:36;;;;;;;0.63;0.40;;;3.90;99.90;;;;;;10395351;27;20442;-54
2021/01/25 21:54:57;;;;;;;1.83;0.50;;;3.90;99.90;;;;;;10394745;28;20124;-54
2021/01/25 22:00:19;;;;;;;1.30;0.32;;;3.90;99.90;;;;;;10390388;27;20500;-54
2021/01/25 22:05:40;;;;;;;0.30;0.10;;;4.00;99.90;;;;;;10391534;27;20084;-54
2021/01/25 22:11:01;;;;;;;2.42;0.32;;;4.10;99.90;;;;;;10384500;28;20067;-55
2021/01/25 22:16:22;;;;;;;1.23;0.10;;;4.20;99.90;;;;;;10391588;27;20514;-55
2021/01/25 22:21:42;;;;;;;0.30;0.17;;;4.20;99.90;;;;;;10384794;27;20381;-54
2021/01/25 22:27:04;;;;;;;0.82;0.35;;;4.20;99.90;;;;;;10393105;28;20497;-54
2021/01/25 22:32:26;;;;;;;3.60;0.10;;;4.00;99.90;;;;;;10393420;27;20404;-54
2021/01/25 22:37:48;;;;;;;1.17;0.22;;;4.00;99.90;;;;;;10391637;27;20082;-54
2021/01/25 22:43:11;;;;;;;4.30;0.30;;;4.00;99.90;;;;;;10394577;28;20591;-54
2021/01/25 22:48:33;;;;;;;3.03;0.30;;;3.90;99.90;;;;;;10393771;28;20408;-54
2021/01/25 22:53:54;;;;;;;0.82;0.32;;;4.00;99.90;;;;;;10391822;27;20414;-54
2021/01/25 22:59:15;;;;;;;2.03;0.30;;;4.00;99.90;;;;;;10398428;27;20045;-54
2021/01/25 23:04:37;;;;;;;0.60;0.30;;;4.00;99.90;;;;;;10399816;27;20060;-54
2021/01/25 23:09:58;;;;;;;1.38;0.32;;;4.10;99.90;;;;;;10394606;27;20101;-54
2021/01/25 23:15:52;;;;;;;0.63;0.10;;;4.30;99.90;;;;;;10395874;27;20050;-55
2021/01/25 23:21:14;;;;;;;1.55;0.30;;;4.20;99.90;;;;;;10397640;27;20037;-55
2021/01/25 23:26:36;;;;;;;9.13;0.60;;;4.10;99.90;;;;;;10396138;27;20052;-54
2021/01/25 23:31:59;;;;;;;6.20;0.30;;;4.10;99.90;;;;;;10381057;27;20180;-54
2021/01/25 23:37:20;;;;;;;0.32;0.17;;;4.10;99.90;;;;;;10394778;28;20129;-54
2021/01/25 23:42:41;;;;;;;0.57;0.15;;;4.10;99.90;;;;;;10397425;28;20048;-54
2021/01/25 23:48:02;;;;;;;1.27;0.90;;;4.30;99.90;;;;;;10393857;27;20041;-54
2021/01/25 23:53:24;;;;;;;2.35;0.80;;;4.50;99.90;;;;;;10395690;27;20523;-55
2021/01/25 23:58:45;;;;;;;1.90;0.80;;;4.70;99.90;;;;;;10390427;27;20037;-55
